This is the latest recevied weather packets stored in our database for station/object OK3FM-14. If no packets are shown the sender has not sent any weather packets the latest 10 day(s).
| Time | Temp. | Humidity | Pressure | Rain* | Wind** | Luminosity | Snow |
|---|---|---|---|---|---|---|---|
| 1787999251 | 22.22° C | 51% | 1018.6 hPa | - | - | - | - |
| 1787998655 | 22.22° C | 52% | 1018.7 hPa | - | - | - | - |
| 1787998049 | 21.67° C | 58% | 1018.7 hPa | - | - | - | - |
| 1787997449 | 21.67° C | 53% | 1018.7 hPa | - | - | - | - |
| 1787996849 | 21.11° C | 53% | 1018.7 hPa | - | - | - | - |
| 1787996249 | 21.11° C | 52% | 1018.8 hPa | - | - | - | - |
| 1787995650 | 21.67° C | 54% | 1018.8 hPa | - | - | - | - |
| 1787995049 | 21.11° C | 58% | 1018.8 hPa | - | - | - | - |
| 1787994449 | 21.67° C | 58% | 1018.6 hPa | - | - | - | - |
| 1787993849 | 21.11° C | 57% | 1018.6 hPa | - | - | - | - |
| 1787993249 | 22.22° C | 56% | 1018.7 hPa | - | - | - | - |
| 1787992649 | 21.11° C | 58% | 1018.8 hPa | - | - | - | - |
| 1787992049 | 20.56° C | 61% | 1018.7 hPa | - | - | - | - |
| 1787991453 | 21.11° C | 59% | 1018.6 hPa | - | - | - | - |
| 1787990849 | 21.11° C | 57% | 1018.6 hPa | - | - | - | - |
| 1787990249 | 22.22° C | 55% | 1018.4 hPa | - | - | - | - |
| 1787989649 | 20.56° C | 59% | 1018.5 hPa | - | - | - | - |
| 1787989049 | 22.22° C | 57% | 1018.2 hPa | - | - | - | - |
| 1787988449 | 22.22° C | 55% | 1018.3 hPa | - | - | - | - |
| 1787987849 | 22.78° C | 57% | 1018.2 hPa | - | - | - | - |
| 1787987249 | 21.11° C | 60% | 1018.2 hPa | - | - | - | - |
| 1787986649 | 21.67° C | 58% | 1018.1 hPa | - | - | - | - |
| 1787986049 | 21.11° C | 60% | 1018 hPa | - | - | - | - |
| 1787985449 | 21.11° C | 61% | 1017.9 hPa | - | - | - | - |
| 1787984849 | 21.11° C | 60% | 1017.8 hPa | - | - | - | - |
* Rain since midnight (hover to see other rain measurements)
** Current wind speed in m/s (hover to see current wind gust speed)